createdAt,value
2016-06-02T00:00:37.598Z,0
2016-06-02T00:01:23.426Z,0
2016-06-02T00:02:23.288Z,0
2016-06-02T00:03:23.463Z,0
2016-06-02T00:04:23.559Z,0
2016-06-02T00:05:23.515Z,0
2016-06-02T00:06:23.376Z,0
2016-06-02T00:07:37.757Z,0
2016-06-02T00:08:23.445Z,0
2016-06-02T00:09:37.763Z,0
2016-06-02T00:10:39.453Z,0
2016-06-02T00:11:23.671Z,0
2016-06-02T00:12:37.896Z,0
2016-06-02T00:13:23.552Z,0
2016-06-02T00:14:23.586Z,0
2016-06-02T00:15:23.604Z,0
2016-06-02T00:16:23.638Z,0
2016-06-02T00:17:23.812Z,0
2016-06-02T00:18:23.847Z,0
2016-06-02T00:19:23.568Z,0
2016-06-02T00:21:23.917Z,0
2016-06-02T00:22:38.141Z,0
2016-06-02T00:23:38.144Z,0
2016-06-02T00:24:24.160Z,0
2016-06-02T00:25:25.163Z,0
2016-06-02T00:27:38.092Z,0
2016-06-02T00:28:24.092Z,0
2016-06-02T00:29:38.302Z,0
2016-06-02T00:30:24.161Z,0
2016-06-02T00:31:24.179Z,0
2016-06-02T00:33:24.059Z,0
2016-06-02T00:34:24.233Z,0
2016-06-02T00:35:38.442Z,0
2016-06-02T00:36:24.285Z,0
2016-06-02T00:37:38.494Z,0
2016-06-02T00:38:24.182Z,0
2016-06-02T00:39:38.406Z,0
2016-06-02T00:40:25.374Z,0
2016-06-02T00:41:24.393Z,0
2016-06-02T00:42:24.426Z,0
2016-06-02T00:43:52.823Z,0
2016-06-02T00:44:38.670Z,0
2016-06-02T00:45:24.513Z,0
2016-06-02T00:46:24.531Z,0
2016-06-02T00:47:24.550Z,0
2016-06-02T00:48:24.568Z,0
2016-06-02T00:49:38.792Z,0
2016-06-02T00:50:24.651Z,0
2016-06-02T00:51:24.654Z,0
2016-06-02T00:52:24.689Z,0
2016-06-02T00:54:24.725Z,0
2016-06-02T00:55:26.275Z,0
2016-06-02T00:56:24.777Z,0
2016-06-02T00:57:38.844Z,0
2016-06-02T00:58:24.688Z,0
2016-06-02T00:59:38.882Z,0
2016-06-02T01:00:24.866Z,0
2016-06-02T01:01:24.947Z,0
2016-06-02T01:02:24.933Z,0
2016-06-02T01:03:24.968Z,0
2016-06-02T01:04:24.814Z,0
2016-06-02T01:05:24.988Z,0
2016-06-02T01:06:24.866Z,0
2016-06-02T01:07:39.246Z,0
2016-06-02T01:08:39.124Z,0
2016-06-02T01:09:39.143Z,0
2016-06-02T01:10:25.784Z,0
2016-06-02T01:11:25.004Z,0
2016-06-02T01:12:24.695Z,0
2016-06-02T01:13:25.213Z,0
2016-06-02T01:14:24.920Z,0
2016-06-02T01:15:39.440Z,0
2016-06-02T01:16:25.128Z,0
2016-06-02T01:17:39.477Z,0
2016-06-02T01:18:25.149Z,0
2016-06-02T01:19:25.183Z,0
2016-06-02T01:20:25.061Z,0
2016-06-02T01:21:25.376Z,0
2016-06-02T01:22:25.269Z,0
2016-06-02T01:23:39.462Z,0
2016-06-02T01:24:25.431Z,0
2016-06-02T01:25:25.871Z,0
2016-06-02T01:26:25.514Z,0
2016-06-02T01:29:25.444Z,0
2016-06-02T01:30:39.794Z,0
2016-06-02T01:31:25.481Z,0
2016-06-02T01:32:25.655Z,0
2016-06-02T01:33:25.674Z,0
2016-06-02T01:34:25.552Z,0
2016-06-02T01:35:25.726Z,0
2016-06-02T01:36:25.744Z,0
2016-06-02T01:37:39.968Z,0
2016-06-02T01:38:25.796Z,0
2016-06-02T01:39:25.690Z,0
2016-06-02T01:40:40.164Z,0
2016-06-02T01:42:25.901Z,0
2016-06-02T01:43:25.919Z,0
2016-06-02T01:44:39.987Z,0
2016-06-02T01:45:25.971Z,0
2016-06-02T01:46:25.990Z,0
2016-06-02T01:47:25.851Z,0
2016-06-02T01:48:25.886Z,0
2016-06-02T01:49:26.060Z,0
2016-06-02T01:50:26.094Z,0
2016-06-02T01:51:25.972Z,0
2016-06-02T01:52:25.990Z,0
2016-06-02T01:53:26.165Z,0
2016-06-02T01:54:25.886Z,0
2016-06-02T01:55:26.826Z,0
2016-06-02T01:56:26.250Z,0
2016-06-02T01:57:26.254Z,0
2016-06-02T01:58:40.462Z,0
2016-06-02T01:59:26.306Z,0
2016-06-02T02:00:26.183Z,0
2016-06-02T02:01:26.342Z,0
2016-06-02T02:02:40.566Z,0
2016-06-02T02:03:40.600Z,0
2016-06-02T02:04:26.475Z,0
2016-06-02T02:05:40.637Z,0
2016-06-02T02:06:40.671Z,0
2016-06-02T02:07:26.202Z,0
2016-06-02T02:08:26.267Z,0
2016-06-02T02:09:26.552Z,0
2016-06-02T02:10:26.571Z,0
2016-06-02T02:11:26.604Z,0
2016-06-02T02:12:40.829Z,0
2016-06-02T02:13:26.641Z,0
2016-06-02T02:14:26.518Z,0
2016-06-02T02:15:26.692Z,0
2016-06-02T02:16:26.711Z,0
2016-06-02T02:17:40.779Z,0
2016-06-02T02:18:40.953Z,0
2016-06-02T02:19:26.797Z,0
2016-06-02T02:20:26.800Z,0
2016-06-02T02:21:41.024Z,0
2016-06-02T02:22:26.743Z,0
2016-06-02T02:23:26.886Z,0
2016-06-02T02:24:26.592Z,0
2016-06-02T02:25:55.910Z,0
2016-06-02T02:26:26.801Z,0
2016-06-02T02:27:26.974Z,0
2016-06-02T02:28:26.852Z,0
2016-06-02T02:29:27.028Z,0
2016-06-02T02:31:41.269Z,0
2016-06-02T02:32:41.132Z,0
2016-06-02T02:33:27.132Z,0
2016-06-02T02:34:41.340Z,0
2016-06-02T02:35:26.871Z,0
2016-06-02T02:36:27.186Z,0
2016-06-02T02:37:27.221Z,0
2016-06-02T02:38:27.239Z,0
2016-06-02T02:39:27.273Z,0
2016-06-02T02:40:27.571Z,0
2016-06-02T02:41:55.531Z,0
2016-06-02T02:42:27.187Z,0
2016-06-02T02:43:41.395Z,0
2016-06-02T02:44:27.395Z,0
2016-06-02T02:45:27.429Z,5
2016-06-02T02:46:41.622Z,5
2016-06-02T02:47:27.450Z,5
2016-06-02T02:48:27.485Z,5
2016-06-02T02:49:27.503Z,5
2016-06-02T02:50:41.712Z,5
2016-06-02T02:51:27.399Z,5
2016-06-02T02:52:27.589Z,5
2016-06-02T02:53:27.607Z,5
2016-06-02T02:54:27.469Z,5
2016-06-02T02:55:28.159Z,5
2016-06-02T02:56:27.662Z,10
2016-06-02T02:57:55.917Z,10
2016-06-02T02:58:27.714Z,10
2016-06-02T02:59:41.923Z,10
2016-06-02T03:00:27.455Z,10
2016-06-02T03:01:41.975Z,10
2016-06-02T03:02:42.009Z,10
2016-06-02T03:03:27.838Z,10
2016-06-02T03:04:27.872Z,15
2016-06-02T03:05:42.079Z,15
2016-06-02T03:06:27.907Z,15
2016-06-02T03:07:41.976Z,15
2016-06-02T03:08:27.960Z,15
2016-06-02T03:09:27.979Z,20
2016-06-02T03:10:42.202Z,20
2016-06-02T03:11:42.065Z,20
2016-06-02T03:13:28.083Z,20
2016-06-02T03:14:27.961Z,25
2016-06-02T03:15:27.963Z,25
2016-06-02T03:16:42.328Z,25
2016-06-02T03:17:42.362Z,25
2016-06-02T03:18:42.380Z,25
2016-06-02T03:19:28.067Z,25
2016-06-02T03:20:28.101Z,25
2016-06-02T03:21:28.120Z,25
2016-06-02T03:22:28.295Z,30
2016-06-02T03:23:42.503Z,30
2016-06-02T03:24:28.331Z,30
2016-06-02T03:25:28.975Z,30
2016-06-02T03:26:28.383Z,30
2016-06-02T03:27:28.245Z,30
2016-06-02T03:28:28.280Z,30
2016-06-02T03:29:28.478Z,30
2016-06-02T03:30:28.085Z,30
2016-06-02T03:31:42.797Z,30
2016-06-02T03:32:28.625Z,30
2016-06-02T03:33:42.868Z,30
2016-06-02T03:34:28.556Z,35
2016-06-02T03:35:28.756Z,35
2016-06-02T03:36:28.768Z,35
2016-06-02T03:38:28.682Z,35
2016-06-02T03:39:28.876Z,40
2016-06-02T03:40:29.084Z,40
2016-06-02T03:41:43.112Z,40
2016-06-02T03:42:28.956Z,40
2016-06-02T03:43:28.976Z,45
2016-06-02T03:44:28.855Z,45
2016-06-02T03:45:28.875Z,45
2016-06-02T03:46:29.066Z,50
2016-06-02T03:47:43.262Z,50
2016-06-02T03:48:29.106Z,50
2016-06-02T03:49:29.156Z,50
2016-06-02T03:50:29.159Z,50
2016-06-02T03:51:29.177Z,50
2016-06-02T03:52:29.196Z,50
2016-06-02T03:53:43.421Z,50
2016-06-02T03:54:29.092Z,50
2016-06-02T03:56:29.145Z,50
2016-06-02T03:57:29.337Z,50
2016-06-02T03:58:29.355Z,50
2016-06-02T03:59:29.373Z,50
2016-06-02T04:01:43.616Z,50
2016-06-02T04:02:29.445Z,50
2016-06-02T04:03:29.462Z,50
2016-06-02T04:04:43.686Z,50
2016-06-02T04:05:43.705Z,50
2016-06-02T04:06:29.564Z,55
2016-06-02T04:07:43.757Z,55
2016-06-02T04:08:29.570Z,55
2016-06-02T04:09:43.841Z,60
2016-06-02T04:10:29.981Z,65
2016-06-02T04:11:29.639Z,65
2016-06-02T04:12:29.517Z,70
2016-06-02T04:13:29.394Z,70
2016-06-02T04:14:29.726Z,70
2016-06-02T04:15:29.775Z,70
2016-06-02T04:16:29.778Z,70
2016-06-02T04:17:43.987Z,70
2016-06-02T04:18:29.674Z,65
2016-06-02T04:19:44.038Z,65
2016-06-02T04:20:44.057Z,65
2016-06-02T04:21:29.745Z,60
2016-06-02T04:22:29.919Z,60
2016-06-02T04:23:29.797Z,55
2016-06-02T04:24:29.971Z,55
2016-06-02T04:25:44.040Z,55
2016-06-02T04:26:30.024Z,55
2016-06-02T04:27:29.886Z,55
2016-06-02T04:28:29.904Z,55
2016-06-02T04:29:30.095Z,55
2016-06-02T04:30:29.957Z,55
2016-06-02T04:31:29.976Z,50
2016-06-02T04:32:30.196Z,50
2016-06-02T04:33:30.183Z,50
2016-06-02T04:34:30.217Z,45
2016-06-02T04:35:30.095Z,45
2016-06-02T04:36:44.444Z,40
2016-06-02T04:37:30.288Z,40
2016-06-02T04:38:44.497Z,35
2016-06-02T04:39:30.325Z,35
2016-06-02T04:40:44.392Z,35
2016-06-02T04:41:30.361Z,35
2016-06-02T04:42:30.411Z,35
2016-06-02T04:43:30.430Z,35
2016-06-02T04:44:30.463Z,35
2016-06-02T04:45:30.513Z,40
2016-06-02T04:46:30.499Z,40
2016-06-02T04:47:30.362Z,40
2016-06-02T04:48:30.552Z,40
2016-06-02T04:49:30.274Z,40
2016-06-02T04:50:30.604Z,40
2016-06-02T04:51:44.656Z,35
2016-06-02T04:52:30.640Z,35
2016-06-02T04:53:30.674Z,35
2016-06-02T04:54:45.274Z,35
2016-06-02T04:55:31.102Z,35
2016-06-02T04:56:30.573Z,35
2016-06-02T04:57:30.763Z,40
2016-06-02T04:58:30.782Z,45
2016-06-02T04:59:30.831Z,50
2016-06-02T05:01:30.853Z,55
2016-06-02T05:02:45.077Z,60
2016-06-02T05:03:30.937Z,65
2016-06-02T05:04:30.923Z,65
2016-06-02T05:05:30.942Z,75
2016-06-02T05:06:30.819Z,85
2016-06-02T05:07:45.183Z,100
2016-06-02T05:08:30.917Z,105
2016-06-02T05:09:30.889Z,150
2016-06-02T05:11:31.098Z,180
2016-06-02T05:12:45.306Z,155
2016-06-02T05:13:45.184Z,170
2016-06-02T05:14:31.169Z,295
2016-06-02T05:15:31.187Z,205
2016-06-02T05:16:31.080Z,205
2016-06-02T05:17:31.239Z,210
2016-06-02T05:18:45.292Z,165
2016-06-02T05:19:45.482Z,135
2016-06-02T05:20:31.169Z,120
2016-06-02T05:21:31.343Z,105
2016-06-02T05:22:31.206Z,95
2016-06-02T05:23:31.224Z,90
2016-06-02T05:24:44.573Z,80
2016-06-02T05:25:32.604Z,70
2016-06-02T05:26:31.498Z,65
2016-06-02T05:27:31.501Z,60
2016-06-02T05:29:31.537Z,50
2016-06-02T05:30:31.399Z,50
2016-06-02T05:31:45.623Z,50
2016-06-02T05:32:31.467Z,50
2016-06-02T05:33:45.817Z,50
2016-06-02T05:34:31.660Z,50
2016-06-02T05:35:31.679Z,45
2016-06-02T05:36:31.697Z,45
2016-06-02T05:37:45.921Z,45
2016-06-02T05:39:31.783Z,50
2016-06-02T05:40:31.504Z,55
2016-06-02T05:41:46.009Z,55
2016-06-02T05:42:31.869Z,60
2016-06-02T05:43:31.731Z,60
2016-06-02T05:44:46.080Z,55
2016-06-02T05:45:31.767Z,55
2016-06-02T05:46:31.957Z,55
2016-06-02T05:47:31.820Z,55
2016-06-02T05:48:32.010Z,55
2016-06-02T05:49:32.028Z,55
2016-06-02T05:50:32.078Z,60
2016-06-02T05:51:32.096Z,60
2016-06-02T05:52:32.099Z,65
2016-06-02T05:53:31.960Z,70
2016-06-02T05:54:32.152Z,75
2016-06-02T05:55:32.029Z,80
2016-06-02T05:56:32.188Z,90
2016-06-02T05:57:32.221Z,95
2016-06-02T05:58:32.256Z,100
2016-06-02T05:59:32.118Z,120
2016-06-02T06:01:32.326Z,165
2016-06-02T06:02:32.188Z,180
2016-06-02T06:03:32.379Z,175
2016-06-02T06:06:46.624Z,140
2016-06-02T06:07:32.468Z,145
2016-06-02T06:08:32.501Z,150
2016-06-02T06:09:32.536Z,160
2016-06-02T06:10:33.132Z,180
2016-06-02T06:11:46.778Z,200
2016-06-02T06:12:32.590Z,220
2016-06-02T06:13:32.609Z,395
2016-06-02T06:14:32.642Z,245
2016-06-02T06:15:46.851Z,250
2016-06-02T06:16:32.695Z,265
2016-06-02T06:17:32.713Z,295
2016-06-02T06:18:32.747Z,345
2016-06-02T06:19:32.781Z,450
2016-06-02T06:21:32.819Z,520
2016-06-02T06:22:32.851Z,1130
2016-06-02T06:23:47.074Z,1165
2016-06-02T06:24:32.748Z,1030
2016-06-02T06:25:32.719Z,1130
2016-06-02T06:26:47.144Z,1220
2016-06-02T06:27:32.991Z,1220
2016-06-02T06:28:47.196Z,1215
2016-06-02T06:29:32.871Z,1170
2016-06-02T06:30:47.249Z,1195
2016-06-02T06:32:33.129Z,1180
2016-06-02T06:33:32.991Z,1185
2016-06-02T06:34:33.181Z,1170
2016-06-02T06:35:33.059Z,1170
2016-06-02T06:36:47.421Z,1170
2016-06-02T06:37:33.268Z,1160
2016-06-02T06:38:33.301Z,1130
2016-06-02T06:39:33.367Z,1130
2016-06-02T06:40:34.009Z,1110
2016-06-02T06:41:33.387Z,1110
2016-06-02T06:42:33.421Z,1095
2016-06-02T06:43:33.455Z,1100
2016-06-02T06:44:47.661Z,1095
2016-06-02T06:45:33.522Z,1080
2016-06-02T06:46:47.729Z,1025
2016-06-02T06:48:01.953Z,1045
2016-06-02T06:48:33.609Z,995
2016-06-02T06:49:33.643Z,930
2016-06-02T06:50:47.880Z,905
2016-06-02T06:51:33.711Z,880
2016-06-02T06:52:33.744Z,820
2016-06-02T06:53:33.794Z,825
2016-06-02T06:54:33.828Z,745
2016-06-02T06:55:33.706Z,680
2016-06-02T06:56:33.724Z,600
2016-06-02T06:58:33.807Z,560
2016-06-02T06:59:33.826Z,620
2016-06-02T07:00:34.032Z,605
2016-06-02T07:02:33.943Z,660
2016-06-02T07:03:48.352Z,680
2016-06-02T07:04:34.168Z,680
2016-06-02T07:05:34.186Z,675
2016-06-02T07:06:34.235Z,675
2016-06-02T07:07:48.284Z,680
2016-06-02T07:08:34.287Z,690
2016-06-02T07:09:34.822Z,735
2016-06-02T07:10:48.418Z,885
2016-06-02T07:11:48.592Z,1185
2016-06-02T07:12:48.627Z,1500
2016-06-02T07:13:48.708Z,1470
2016-06-02T07:14:34.381Z,1455
2016-06-02T07:15:48.729Z,1420
2016-06-02T07:16:34.591Z,1365
2016-06-02T07:17:34.609Z,1305
2016-06-02T07:18:34.643Z,1240
2016-06-02T07:19:48.865Z,1185
2016-06-02T07:20:34.569Z,1210
2016-06-02T07:21:34.776Z,1240
2016-06-02T07:22:34.654Z,1290
2016-06-02T07:23:34.656Z,1275
2016-06-02T07:25:35.756Z,1180
2016-06-02T07:26:34.774Z,1190
2016-06-02T07:28:34.999Z,1145
2016-06-02T07:29:34.891Z,1160
2016-06-02T07:30:35.066Z,1170
2016-06-02T07:31:35.100Z,1150
2016-06-02T07:32:49.337Z,1055
2016-06-02T07:33:35.199Z,1020
2016-06-02T07:34:35.233Z,1020
2016-06-02T07:35:49.439Z,985
2016-06-02T07:36:35.129Z,980
2016-06-02T07:37:35.335Z,965
2016-06-02T07:38:35.368Z,965
2016-06-02T07:39:35.918Z,980
2016-06-02T07:40:36.781Z,985
2016-06-02T07:41:35.346Z,975
2016-06-02T07:42:35.348Z,1000
2016-06-02T07:43:35.539Z,985
2016-06-02T07:44:35.275Z,960
2016-06-02T07:45:35.622Z,965
2016-06-02T07:46:35.531Z,975
2016-06-02T07:47:35.706Z,970
2016-06-02T07:48:49.912Z,955
2016-06-02T07:49:35.617Z,955
2016-06-02T07:50:49.979Z,925
2016-06-02T07:51:35.825Z,905
2016-06-02T07:52:35.875Z,955
2016-06-02T07:53:35.925Z,940
2016-06-02T07:54:36.006Z,945
2016-06-02T07:55:36.227Z,930
2016-06-02T07:56:36.011Z,910
2016-06-02T07:57:50.247Z,915
2016-06-02T07:58:36.094Z,895
2016-06-02T07:59:36.003Z,860
2016-06-02T08:00:50.038Z,855
2016-06-02T08:01:35.884Z,845
2016-06-02T08:03:36.263Z,835
2016-06-02T08:04:36.313Z,840
2016-06-02T08:05:36.348Z,830
2016-06-02T08:06:36.240Z,830
2016-06-02T08:07:36.416Z,830
2016-06-02T08:08:36.293Z,835
2016-06-02T08:11:04.910Z,840
2016-06-02T08:11:36.567Z,825
2016-06-02T08:12:50.475Z,810
2016-06-02T08:13:36.479Z,445
2016-06-02T08:14:36.512Z,525
2016-06-02T08:15:50.905Z,780
2016-06-02T08:17:36.786Z,435
2016-06-02T08:18:51.008Z,775
2016-06-02T08:19:36.697Z,725
2016-06-02T08:20:36.904Z,735
2016-06-02T08:21:51.109Z,720
2016-06-02T08:22:51.159Z,695
2016-06-02T08:23:36.849Z,435
2016-06-02T08:24:37.133Z,300
2016-06-02T08:25:36.792Z,415
2016-06-02T08:26:37.108Z,690
2016-06-02T08:27:37.157Z,675
2016-06-02T08:28:37.019Z,665
2016-06-02T08:29:37.224Z,655
2016-06-02T08:30:37.290Z,635
2016-06-02T08:31:37.121Z,615
2016-06-02T08:32:51.342Z,610
2016-06-02T08:33:51.548Z,610
2016-06-02T08:34:51.582Z,610
2016-06-02T08:35:37.429Z,605
2016-06-02T08:36:37.463Z,590
2016-06-02T08:37:37.340Z,590
2016-06-02T08:38:51.592Z,590
2016-06-02T08:39:37.142Z,570
2016-06-02T08:40:37.317Z,550
2016-06-02T08:41:51.834Z,545
2016-06-02T08:42:37.697Z,535
2016-06-02T08:43:37.559Z,530
2016-06-02T08:44:37.748Z,525
2016-06-02T08:45:37.783Z,525
2016-06-02T08:46:37.676Z,515
2016-06-02T08:47:37.851Z,515
2016-06-02T08:49:37.919Z,495
2016-06-02T08:50:37.812Z,505
2016-06-02T08:51:52.205Z,445
2016-06-02T08:52:38.053Z,480
2016-06-02T08:53:38.086Z,470
2016-06-02T08:54:52.558Z,385
2016-06-02T08:55:39.747Z,490
2016-06-02T08:56:38.188Z,495
2016-06-02T08:57:38.221Z,500
2016-06-02T08:58:38.255Z,500
2016-06-02T08:59:38.149Z,500
2016-06-02T09:00:38.355Z,495
2016-06-02T09:01:38.374Z,490
2016-06-02T09:02:38.407Z,410
2016-06-02T09:03:38.441Z,255
2016-06-02T09:04:38.459Z,250
2016-06-02T09:05:38.525Z,260
2016-06-02T09:06:52.418Z,265
2016-06-02T09:07:38.577Z,300
2016-06-02T09:08:38.299Z,355
2016-06-02T09:09:38.504Z,245
2016-06-02T09:10:53.101Z,485
2016-06-02T09:11:38.572Z,470
2016-06-02T09:12:38.793Z,435
2016-06-02T09:13:38.780Z,465
2016-06-02T09:14:38.658Z,470
2016-06-02T09:15:38.693Z,475
2016-06-02T09:16:38.882Z,480
2016-06-02T09:17:38.917Z,500
2016-06-02T09:18:38.965Z,490
2016-06-02T09:19:39.000Z,360
2016-06-02T09:20:39.018Z,345
2016-06-02T09:21:39.067Z,275
2016-06-02T09:22:53.290Z,260
2016-06-02T09:24:39.170Z,455
2016-06-02T09:25:53.094Z,405
2016-06-02T09:26:39.236Z,450
2016-06-02T09:27:39.115Z,445
2016-06-02T09:28:39.150Z,445
2016-06-02T09:29:39.355Z,315
2016-06-02T09:30:39.373Z,340
2016-06-02T09:31:39.391Z,350
2016-06-02T09:32:39.425Z,445
2016-06-02T09:33:53.506Z,285
2016-06-02T09:34:39.508Z,280
2016-06-02T09:35:39.386Z,250
2016-06-02T09:36:53.608Z,250
2016-06-02T09:37:53.783Z,380
2016-06-02T09:38:39.644Z,265
2016-06-02T09:39:39.444Z,290
2016-06-02T09:40:44.962Z,260
2016-06-02T09:41:39.591Z,250
2016-06-02T09:42:39.780Z,265
2016-06-02T09:43:39.643Z,385
2016-06-02T09:44:39.676Z,370
2016-06-02T09:45:39.867Z,365
2016-06-02T09:46:39.900Z,275
2016-06-02T09:47:39.935Z,215
2016-06-02T09:48:39.968Z,225
2016-06-02T09:49:40.003Z,240
2016-06-02T09:50:39.881Z,370
2016-06-02T09:51:39.914Z,395
2016-06-02T09:52:39.932Z,395
2016-06-02T09:53:40.138Z,280
2016-06-02T09:54:40.532Z,260
2016-06-02T09:55:40.956Z,255
2016-06-02T09:56:40.240Z,245
2016-06-02T09:57:54.445Z,365
2016-06-02T09:58:40.292Z,360
2016-06-02T09:59:40.326Z,360
2016-06-02T10:00:40.361Z,370
2016-06-02T10:01:40.378Z,370
2016-06-02T10:03:40.462Z,380
2016-06-02T10:04:40.496Z,370
2016-06-02T10:05:40.530Z,230
2016-06-02T10:06:54.752Z,215
2016-06-02T10:07:40.597Z,220
2016-06-02T10:09:40.509Z,230
2016-06-02T10:11:40.702Z,350
2016-06-02T10:12:40.767Z,350
2016-06-02T10:13:55.020Z,245
2016-06-02T10:14:40.663Z,280
2016-06-02T10:15:40.698Z,335
2016-06-02T10:16:40.887Z,300
2016-06-02T10:17:40.781Z,205
2016-06-02T10:18:40.939Z,190
2016-06-02T10:19:40.974Z,190
2016-06-02T10:20:55.054Z,195
2016-06-02T10:21:40.885Z,205
2016-06-02T10:22:41.076Z,270
2016-06-02T10:23:41.110Z,210
2016-06-02T10:24:42.050Z,210
2016-06-02T10:25:41.803Z,255
2016-06-02T10:26:41.055Z,300
2016-06-02T10:27:55.418Z,285
2016-06-02T10:28:55.450Z,330
2016-06-02T10:30:09.691Z,340
2016-06-02T10:30:41.175Z,330
2016-06-02T10:31:55.553Z,340
2016-06-02T10:32:41.243Z,340
2016-06-02T10:33:55.621Z,310
2016-06-02T10:34:55.670Z,265
2016-06-02T10:35:41.486Z,200
2016-06-02T10:36:41.566Z,215
2016-06-02T10:37:41.553Z,250
2016-06-02T10:39:41.746Z,325
2016-06-02T10:40:41.515Z,340
2016-06-02T10:41:41.673Z,305
2016-06-02T10:42:41.707Z,275
2016-06-02T10:43:41.741Z,330
2016-06-02T10:44:41.619Z,345
2016-06-02T10:45:55.996Z,345
2016-06-02T10:46:41.687Z,345
2016-06-02T10:47:41.877Z,345
2016-06-02T10:48:41.755Z,235
2016-06-02T10:49:41.945Z,350
2016-06-02T10:50:41.963Z,335
2016-06-02T10:51:42.013Z,330
2016-06-02T10:52:41.876Z,300
2016-06-02T10:53:42.065Z,220
2016-06-02T10:54:42.959Z,240
2016-06-02T10:55:42.320Z,275
2016-06-02T10:57:10.528Z,175
2016-06-02T10:57:56.216Z,175
2016-06-02T10:58:42.220Z,175
2016-06-02T10:59:42.237Z,175
2016-06-02T11:00:56.459Z,180
2016-06-02T11:01:42.305Z,185
2016-06-02T11:03:42.217Z,195
2016-06-02T11:04:42.267Z,220
2016-06-02T11:05:42.128Z,285
2016-06-02T11:06:42.147Z,180
2016-06-02T11:07:42.197Z,165
2016-06-02T11:08:42.544Z,160
2016-06-02T11:10:42.454Z,150
2016-06-02T11:11:42.629Z,155
2016-06-02T11:12:56.851Z,165
2016-06-02T11:13:56.712Z,160
2016-06-02T11:14:42.700Z,170
2016-06-02T11:15:42.734Z,255
2016-06-02T11:16:56.799Z,250
2016-06-02T11:17:42.802Z,250
2016-06-02T11:18:42.836Z,215
2016-06-02T11:19:42.854Z,140
2016-06-02T11:20:42.887Z,130
2016-06-02T11:21:42.921Z,125
2016-06-02T11:22:42.799Z,120
2016-06-02T11:23:42.990Z,115
2016-06-02T11:24:43.054Z,115
2016-06-02T11:25:43.151Z,110
2016-06-02T11:26:57.294Z,110
2016-06-02T11:27:43.094Z,110
2016-06-02T11:28:43.206Z,110
2016-06-02T11:29:43.006Z,110
2016-06-02T11:30:43.196Z,115
2016-06-02T11:32:57.435Z,110
2016-06-02T11:33:43.283Z,110
2016-06-02T11:34:43.300Z,115
2016-06-02T11:35:43.334Z,120
2016-06-02T11:36:43.212Z,120
2016-06-02T11:37:43.402Z,125
2016-06-02T11:38:57.624Z,130
2016-06-02T11:39:43.877Z,135
2016-06-02T11:40:58.254Z,150
2016-06-02T11:42:43.541Z,160
2016-06-02T11:43:57.763Z,170
2016-06-02T11:44:43.608Z,175
2016-06-02T11:45:43.643Z,175
2016-06-02T11:46:43.661Z,220
2016-06-02T11:47:43.710Z,160
2016-06-02T11:48:57.901Z,155
2016-06-02T11:49:57.950Z,155
2016-06-02T11:50:43.781Z,145
2016-06-02T11:51:43.799Z,130
2016-06-02T11:52:43.834Z,125
2016-06-02T11:53:43.555Z,125
2016-06-02T11:54:44.807Z,120
2016-06-02T11:55:45.170Z,120
2016-06-02T11:56:43.970Z,115
2016-06-02T11:57:44.003Z,115
2016-06-02T11:58:58.209Z,120
2016-06-02T11:59:44.070Z,120
2016-06-02T12:01:44.092Z,130
2016-06-02T12:02:43.986Z,135
2016-06-02T12:03:44.159Z,140
2016-06-02T12:04:58.366Z,150
2016-06-02T12:05:43.914Z,160
2016-06-02T12:06:44.089Z,160
2016-06-02T12:08:44.298Z,170
2016-06-02T12:09:44.505Z,175
2016-06-02T12:10:44.444Z,175
2016-06-02T12:11:44.399Z,175
2016-06-02T12:12:44.263Z,180
2016-06-02T12:13:58.483Z,185
2016-06-02T12:14:44.314Z,185
2016-06-02T12:15:44.364Z,185
2016-06-02T12:16:44.523Z,185
2016-06-02T12:17:44.572Z,180
2016-06-02T12:18:44.590Z,185
2016-06-02T12:19:58.796Z,180
2016-06-02T12:20:58.674Z,175
2016-06-02T12:21:44.693Z,175
2016-06-02T12:22:44.554Z,175
2016-06-02T12:23:44.745Z,170
2016-06-02T12:24:45.701Z,175
2016-06-02T12:25:45.313Z,175
2016-06-02T12:26:44.675Z,185
2016-06-02T12:27:44.865Z,190
2016-06-02T12:28:44.884Z,210
2016-06-02T12:29:59.104Z,315
2016-06-02T12:30:44.951Z,310
2016-06-02T12:31:44.969Z,250
2016-06-02T12:32:44.988Z,255
2016-06-02T12:33:45.037Z,225
2016-06-02T12:34:44.924Z,230
2016-06-02T12:36:13.548Z,215
2016-06-02T12:36:59.376Z,210
2016-06-02T12:37:45.250Z,215
2016-06-02T12:38:45.296Z,220
2016-06-02T12:39:45.211Z,225
2016-06-02T12:40:45.410Z,230
2016-06-02T12:41:59.611Z,240
2016-06-02T12:42:45.311Z,240
2016-06-02T12:43:45.512Z,310
2016-06-02T12:44:45.397Z,305
2016-06-02T12:45:45.434Z,295
2016-06-02T12:46:45.629Z,300
2016-06-02T12:47:45.493Z,290
2016-06-02T12:48:59.858Z,240
2016-06-02T12:49:59.896Z,200
2016-06-02T12:50:45.447Z,190
2016-06-02T12:51:45.653Z,175
2016-06-02T12:52:45.813Z,175
2016-06-02T12:53:45.833Z,165
2016-06-02T12:54:46.165Z,160
2016-06-02T12:55:46.058Z,155
2016-06-02T12:56:45.936Z,155
2016-06-02T12:57:45.971Z,150
2016-06-02T12:58:45.990Z,150
2016-06-02T12:59:46.008Z,150
2016-06-02T13:00:46.043Z,150
2016-06-02T13:01:46.062Z,150
2016-06-02T13:02:45.954Z,155
2016-06-02T13:04:00.317Z,155
2016-06-02T13:04:46.163Z,155
2016-06-02T13:05:46.198Z,160
2016-06-02T13:06:46.215Z,160
2016-06-02T13:08:00.453Z,165
2016-06-02T13:08:46.268Z,170
2016-06-02T13:09:47.349Z,170
2016-06-02T13:10:46.212Z,170
2016-06-02T13:11:46.386Z,170
2016-06-02T13:12:46.404Z,175
2016-06-02T13:13:46.438Z,175
2016-06-02T13:14:46.473Z,170
2016-06-02T13:16:46.509Z,175
2016-06-02T13:18:00.731Z,170
2016-06-02T13:19:00.608Z,170
2016-06-02T13:19:46.595Z,170
2016-06-02T13:20:46.472Z,170
2016-06-02T13:21:46.506Z,170
2016-06-02T13:22:46.697Z,185
2016-06-02T13:24:00.903Z,160
2016-06-02T13:24:47.030Z,160
2016-06-02T13:25:47.595Z,155
2016-06-02T13:26:46.660Z,150
2016-06-02T13:27:46.897Z,150
2016-06-02T13:29:00.900Z,150
2016-06-02T13:29:46.747Z,150
2016-06-02T13:31:01.108Z,150
2016-06-02T13:31:46.955Z,150
2016-06-02T13:32:46.833Z,155
2016-06-02T13:33:46.852Z,155
2016-06-02T13:34:47.041Z,160
2016-06-02T13:35:47.060Z,175
2016-06-02T13:37:01.282Z,225
2016-06-02T13:37:47.127Z,225
2016-06-02T13:39:01.334Z,225
2016-06-02T13:40:01.382Z,230
2016-06-02T13:40:47.699Z,225
2016-06-02T13:41:47.248Z,225
2016-06-02T13:42:47.266Z,230
2016-06-02T13:43:47.129Z,230
2016-06-02T13:44:47.318Z,230
2016-06-02T13:45:47.367Z,225
2016-06-02T13:46:47.215Z,225
2016-06-02T13:48:01.436Z,225
2016-06-02T13:48:47.298Z,220
2016-06-02T13:49:47.316Z,230
2016-06-02T13:50:47.491Z,235
2016-06-02T13:51:47.384Z,235
2016-06-02T13:52:47.403Z,235
2016-06-02T13:53:47.592Z,245
2016-06-02T13:54:47.470Z,240
2016-06-02T13:56:01.801Z,235
2016-06-02T13:56:47.507Z,230
2016-06-02T13:57:47.541Z,230
2016-06-02T13:59:01.919Z,225
2016-06-02T13:59:47.749Z,220
2016-06-02T14:02:47.694Z,230
2016-06-02T14:03:47.713Z,225
2016-06-02T14:04:47.888Z,225
2016-06-02T14:05:47.922Z,215
2016-06-02T14:06:47.971Z,210
2016-06-02T14:08:01.865Z,160
2016-06-02T14:09:02.211Z,215
2016-06-02T14:09:48.604Z,205
2016-06-02T14:11:02.623Z,205
2016-06-02T14:11:47.954Z,185
2016-06-02T14:13:02.315Z,130
2016-06-02T14:13:48.162Z,130
2016-06-02T14:14:48.040Z,130
2016-06-02T14:15:48.215Z,195
2016-06-02T14:16:48.107Z,190
2016-06-02T14:17:48.126Z,185
2016-06-02T14:18:48.004Z,190
2016-06-02T14:19:48.334Z,185
2016-06-02T14:21:02.556Z,180
2016-06-02T14:22:02.684Z,185
2016-06-02T14:22:48.420Z,175
2016-06-02T14:23:48.470Z,185
2016-06-02T14:24:50.238Z,185
2016-06-02T14:25:49.163Z,190
2016-06-02T14:27:04.572Z,190
2016-06-02T14:27:48.480Z,190
2016-06-02T14:28:48.594Z,185
2016-06-02T14:29:48.486Z,190
2016-06-02T14:30:48.661Z,190
2016-06-02T14:31:49.680Z,190
2016-06-02T14:33:02.900Z,190
2016-06-02T14:33:48.731Z,190
2016-06-02T14:34:48.765Z,190
2016-06-02T14:35:48.800Z,190
2016-06-02T14:36:48.849Z,185
2016-06-02T14:38:03.055Z,185
2016-06-02T14:38:48.886Z,190
2016-06-02T14:39:50.107Z,185
2016-06-02T14:40:48.953Z,190
2016-06-02T14:41:50.410Z,190
2016-06-02T14:43:03.177Z,190
2016-06-02T14:43:49.040Z,190
2016-06-02T14:44:49.058Z,190